sensor_id;sensor_type;location;lat;lon;timestamp;P1;durP1;ratioP1;P2;durP2;ratioP2
80104;SDS011;69865;47.648;19.030;2023-11-18T00:00:14;8.77;;;8.77;;
80104;SDS011;69865;47.648;19.030;2023-11-18T00:00:46;8.57;;;8.57;;
80104;SDS011;69865;47.648;19.030;2023-11-18T00:01:18;8.43;;;8.43;;
80104;SDS011;69865;47.648;19.030;2023-11-18T00:01:55;8.73;;;8.73;;
80104;SDS011;69865;47.648;19.030;2023-11-18T00:02:27;8.43;;;8.43;;
80104;SDS011;69865;47.648;19.030;2023-11-18T00:03:01;8.17;;;8.17;;
80104;SDS011;69865;47.648;19.030;2023-11-18T00:03:33;8.10;;;8.10;;
80104;SDS011;69865;47.648;19.030;2023-11-18T00:04:05;8.50;;;8.50;;
80104;SDS011;69865;47.648;19.030;2023-11-18T00:04:38;8.60;;;8.60;;
80104;SDS011;69865;47.648;19.030;2023-11-18T00:05:10;8.63;;;8.63;;
80104;SDS011;69865;47.648;19.030;2023-11-18T00:05:43;8.37;;;8.17;;
80104;SDS011;69865;47.648;19.030;2023-11-18T00:06:15;8.77;;;8.40;;
80104;SDS011;69865;47.648;19.030;2023-11-18T00:06:47;8.60;;;8.30;;
80104;SDS011;69865;47.648;19.030;2023-11-18T00:07:21;8.83;;;8.70;;
80104;SDS011;69865;47.648;19.030;2023-11-18T00:07:55;7.83;;;7.83;;
80104;SDS011;69865;47.648;19.030;2023-11-18T00:08:28;8.03;;;7.83;;
80104;SDS011;69865;47.648;19.030;2023-11-18T00:09:01;8.07;;;8.03;;
80104;SDS011;69865;47.648;19.030;2023-11-18T00:09:33;7.80;;;7.80;;
80104;SDS011;69865;47.648;19.030;2023-11-18T00:10:05;8.07;;;8.03;;
80104;SDS011;69865;47.648;19.030;2023-11-18T00:10:38;7.80;;;7.73;;
80104;SDS011;69865;47.648;19.030;2023-11-18T00:11:11;7.67;;;7.67;;
80104;SDS011;69865;47.648;19.030;2023-11-18T00:11:44;7.47;;;7.47;;
80104;SDS011;69865;47.648;19.030;2023-11-18T00:12:17;7.70;;;7.53;;
80104;SDS011;69865;47.648;19.030;2023-11-18T00:12:49;7.97;;;7.77;;
80104;SDS011;69865;47.648;19.030;2023-11-18T00:13:21;7.93;;;7.83;;
80104;SDS011;69865;47.648;19.030;2023-11-18T00:13:54;7.80;;;7.60;;
80104;SDS011;69865;47.648;19.030;2023-11-18T00:14:27;8.27;;;8.20;;
80104;SDS011;69865;47.648;19.030;2023-11-18T00:14:59;8.60;;;8.60;;
80104;SDS011;69865;47.648;19.030;2023-11-18T00:15:31;7.47;;;7.47;;
80104;SDS011;69865;47.648;19.030;2023-11-18T00:16:04;7.70;;;7.70;;
80104;SDS011;69865;47.648;19.030;2023-11-18T00:16:36;7.87;;;7.87;;
80104;SDS011;69865;47.648;19.030;2023-11-18T00:17:09;7.73;;;7.70;;
80104;SDS011;69865;47.648;19.030;2023-11-18T00:17:44;8.13;;;7.93;;
80104;SDS011;69865;47.648;19.030;2023-11-18T00:18:16;8.97;;;8.67;;
80104;SDS011;69865;47.648;19.030;2023-11-18T00:18:48;8.23;;;8.10;;
80104;SDS011;69865;47.648;19.030;2023-11-18T00:19:20;8.63;;;8.60;;
80104;SDS011;69865;47.648;19.030;2023-11-18T00:19:53;8.00;;;8.00;;
80104;SDS011;69865;47.648;19.030;2023-11-18T00:20:25;7.77;;;7.77;;
80104;SDS011;69865;47.648;19.030;2023-11-18T00:20:57;7.33;;;7.33;;
80104;SDS011;69865;47.648;19.030;2023-11-18T00:21:29;7.80;;;7.77;;
80104;SDS011;69865;47.648;19.030;2023-11-18T00:22:02;8.50;;;8.27;;
80104;SDS011;69865;47.648;19.030;2023-11-18T00:22:34;8.13;;;7.90;;
80104;SDS011;69865;47.648;19.030;2023-11-18T00:23:08;7.57;;;7.57;;
80104;SDS011;69865;47.648;19.030;2023-11-18T00:23:43;8.70;;;8.53;;
80104;SDS011;69865;47.648;19.030;2023-11-18T00:24:16;8.60;;;8.33;;
80104;SDS011;69865;47.648;19.030;2023-11-18T00:24:48;7.47;;;7.40;;
80104;SDS011;69865;47.648;19.030;2023-11-18T00:25:20;7.77;;;7.77;;
80104;SDS011;69865;47.648;19.030;2023-11-18T00:25:52;7.47;;;7.47;;
80104;SDS011;69865;47.648;19.030;2023-11-18T00:26:24;7.30;;;7.23;;
80104;SDS011;69865;47.648;19.030;2023-11-18T00:26:56;7.97;;;7.67;;
80104;SDS011;69865;47.648;19.030;2023-11-18T00:27:28;8.50;;;8.20;;
80104;SDS011;69865;47.648;19.030;2023-11-18T00:28:01;9.37;;;9.00;;
80104;SDS011;69865;47.648;19.030;2023-11-18T00:28:33;8.13;;;7.83;;
80104;SDS011;69865;47.648;19.030;2023-11-18T00:29:06;7.60;;;7.33;;
80104;SDS011;69865;47.648;19.030;2023-11-18T00:29:38;8.27;;;8.10;;
80104;SDS011;69865;47.648;19.030;2023-11-18T00:30:10;8.30;;;8.30;;
80104;SDS011;69865;47.648;19.030;2023-11-18T00:30:42;8.03;;;8.03;;
80104;SDS011;69865;47.648;19.030;2023-11-18T00:31:15;8.03;;;7.80;;
80104;SDS011;69865;47.648;19.030;2023-11-18T00:31:47;7.83;;;7.57;;
80104;SDS011;69865;47.648;19.030;2023-11-18T00:32:19;7.63;;;7.43;;
80104;SDS011;69865;47.648;19.030;2023-11-18T00:32:52;7.70;;;7.63;;
80104;SDS011;69865;47.648;19.030;2023-11-18T00:33:25;8.13;;;8.00;;
80104;SDS011;69865;47.648;19.030;2023-11-18T00:33:57;8.07;;;8.00;;
80104;SDS011;69865;47.648;19.030;2023-11-18T00:34:29;7.97;;;7.97;;
80104;SDS011;69865;47.648;19.030;2023-11-18T00:35:05;7.63;;;7.57;;
80104;SDS011;69865;47.648;19.030;2023-11-18T00:35:38;8.10;;;7.83;;
80104;SDS011;69865;47.648;19.030;2023-11-18T00:36:10;7.70;;;7.53;;
80104;SDS011;69865;47.648;19.030;2023-11-18T00:36:42;7.80;;;7.63;;
80104;SDS011;69865;47.648;19.030;2023-11-18T00:37:15;7.37;;;7.20;;
80104;SDS011;69865;47.648;19.030;2023-11-18T00:37:47;7.73;;;7.47;;
80104;SDS011;69865;47.648;19.030;2023-11-18T00:38:20;8.33;;;8.07;;
80104;SDS011;69865;47.648;19.030;2023-11-18T00:38:53;8.43;;;8.10;;
80104;SDS011;69865;47.648;19.030;2023-11-18T00:39:29;8.23;;;7.90;;
80104;SDS011;69865;47.648;19.030;2023-11-18T00:40:05;7.50;;;7.43;;
80104;SDS011;69865;47.648;19.030;2023-11-18T00:40:38;7.47;;;7.43;;
80104;SDS011;69865;47.648;19.030;2023-11-18T00:41:13;7.50;;;7.50;;
80104;SDS011;69865;47.648;19.030;2023-11-18T00:41:48;6.90;;;6.90;;
80104;SDS011;69865;47.648;19.030;2023-11-18T00:42:20;7.10;;;7.10;;
80104;SDS011;69865;47.648;19.030;2023-11-18T00:42:52;7.43;;;7.43;;
80104;SDS011;69865;47.648;19.030;2023-11-18T00:43:24;7.47;;;7.47;;
80104;SDS011;69865;47.648;19.030;2023-11-18T00:43:56;7.13;;;7.13;;
80104;SDS011;69865;47.648;19.030;2023-11-18T00:44:28;7.47;;;7.47;;
80104;SDS011;69865;47.648;19.030;2023-11-18T00:45:01;7.33;;;7.33;;
80104;SDS011;69865;47.648;19.030;2023-11-18T00:45:33;7.57;;;7.57;;
80104;SDS011;69865;47.648;19.030;2023-11-18T00:46:05;7.03;;;7.03;;
80104;SDS011;69865;47.648;19.030;2023-11-18T00:46:37;7.23;;;7.23;;
80104;SDS011;69865;47.648;19.030;2023-11-18T00:47:13;7.37;;;7.27;;
80104;SDS011;69865;47.648;19.030;2023-11-18T00:47:46;7.53;;;7.47;;
80104;SDS011;69865;47.648;19.030;2023-11-18T00:48:18;7.50;;;7.43;;
80104;SDS011;69865;47.648;19.030;2023-11-18T00:48:50;7.83;;;7.83;;
80104;SDS011;69865;47.648;19.030;2023-11-18T00:49:22;7.37;;;7.37;;
80104;SDS011;69865;47.648;19.030;2023-11-18T00:49:55;7.00;;;7.00;;
80104;SDS011;69865;47.648;19.030;2023-11-18T00:50:27;6.37;;;6.37;;
80104;SDS011;69865;47.648;19.030;2023-11-18T00:50:59;7.27;;;7.27;;
80104;SDS011;69865;47.648;19.030;2023-11-18T00:51:31;7.27;;;7.27;;
80104;SDS011;69865;47.648;19.030;2023-11-18T00:52:04;7.00;;;7.00;;
80104;SDS011;69865;47.648;19.030;2023-11-18T00:52:37;6.63;;;6.63;;
80104;SDS011;69865;47.648;19.030;2023-11-18T00:53:09;6.97;;;6.97;;
80104;SDS011;69865;47.648;19.030;2023-11-18T00:53:42;6.27;;;6.27;;
80104;SDS011;69865;47.648;19.030;2023-11-18T00:54:15;6.70;;;6.70;;
80104;SDS011;69865;47.648;19.030;2023-11-18T00:54:48;6.93;;;6.93;;
80104;SDS011;69865;47.648;19.030;2023-11-18T00:55:21;6.43;;;6.43;;
80104;SDS011;69865;47.648;19.030;2023-11-18T00:55:56;7.30;;;7.30;;
80104;SDS011;69865;47.648;19.030;2023-11-18T00:56:31;7.10;;;7.10;;
80104;SDS011;69865;47.648;19.030;2023-11-18T00:57:03;7.20;;;7.20;;
80104;SDS011;69865;47.648;19.030;2023-11-18T00:57:39;6.93;;;6.93;;
80104;SDS011;69865;47.648;19.030;2023-11-18T00:58:11;7.00;;;7.00;;
80104;SDS011;69865;47.648;19.030;2023-11-18T00:58:46;7.03;;;7.03;;
80104;SDS011;69865;47.648;19.030;2023-11-18T00:59:18;6.87;;;6.87;;
80104;SDS011;69865;47.648;19.030;2023-11-18T00:59:50;7.63;;;7.63;;
80104;SDS011;69865;47.648;19.030;2023-11-18T01:00:22;7.57;;;7.57;;
80104;SDS011;69865;47.648;19.030;2023-11-18T01:00:55;7.57;;;7.57;;
80104;SDS011;69865;47.648;19.030;2023-11-18T01:01:29;7.20;;;7.20;;
80104;SDS011;69865;47.648;19.030;2023-11-18T01:02:01;7.23;;;7.23;;
80104;SDS011;69865;47.648;19.030;2023-11-18T01:02:33;7.63;;;7.63;;
80104;SDS011;69865;47.648;19.030;2023-11-18T01:03:05;7.77;;;7.77;;
80104;SDS011;69865;47.648;19.030;2023-11-18T01:03:37;7.10;;;7.10;;
80104;SDS011;69865;47.648;19.030;2023-11-18T01:04:09;7.27;;;7.27;;
80104;SDS011;69865;47.648;19.030;2023-11-18T01:04:41;7.07;;;7.07;;
80104;SDS011;69865;47.648;19.030;2023-11-18T01:05:13;6.73;;;6.70;;
80104;SDS011;69865;47.648;19.030;2023-11-18T01:05:46;7.20;;;7.10;;
80104;SDS011;69865;47.648;19.030;2023-11-18T01:06:18;7.10;;;7.07;;
80104;SDS011;69865;47.648;19.030;2023-11-18T01:06:53;8.20;;;8.03;;
80104;SDS011;69865;47.648;19.030;2023-11-18T01:07:25;8.27;;;8.03;;
80104;SDS011;69865;47.648;19.030;2023-11-18T01:07:57;8.33;;;8.17;;
80104;SDS011;69865;47.648;19.030;2023-11-18T01:08:29;7.27;;;7.23;;
80104;SDS011;69865;47.648;19.030;2023-11-18T01:09:04;7.10;;;7.10;;
80104;SDS011;69865;47.648;19.030;2023-11-18T01:09:37;7.33;;;7.33;;
80104;SDS011;69865;47.648;19.030;2023-11-18T01:10:09;7.17;;;7.17;;
80104;SDS011;69865;47.648;19.030;2023-11-18T01:10:42;7.17;;;7.17;;
80104;SDS011;69865;47.648;19.030;2023-11-18T01:11:18;7.27;;;7.27;;
80104;SDS011;69865;47.648;19.030;2023-11-18T01:11:51;7.63;;;7.63;;
80104;SDS011;69865;47.648;19.030;2023-11-18T01:12:42;6.87;;;6.87;;
80104;SDS011;69865;47.648;19.030;2023-11-18T01:13:14;7.10;;;7.10;;
80104;SDS011;69865;47.648;19.030;2023-11-18T01:13:47;7.13;;;7.13;;
80104;SDS011;69865;47.648;19.030;2023-11-18T01:14:20;7.20;;;7.20;;
80104;SDS011;69865;47.648;19.030;2023-11-18T01:14:52;6.73;;;6.73;;
80104;SDS011;69865;47.648;19.030;2023-11-18T01:15:27;7.77;;;7.77;;
80104;SDS011;69865;47.648;19.030;2023-11-18T01:15:59;7.40;;;7.40;;
80104;SDS011;69865;47.648;19.030;2023-11-18T01:16:31;7.70;;;7.70;;
80104;SDS011;69865;47.648;19.030;2023-11-18T01:17:04;6.87;;;6.87;;
80104;SDS011;69865;47.648;19.030;2023-11-18T01:17:38;7.20;;;7.20;;
80104;SDS011;69865;47.648;19.030;2023-11-18T01:18:10;7.67;;;7.67;;
80104;SDS011;69865;47.648;19.030;2023-11-18T01:18:44;7.43;;;7.43;;
80104;SDS011;69865;47.648;19.030;2023-11-18T01:19:16;8.23;;;8.23;;
80104;SDS011;69865;47.648;19.030;2023-11-18T01:19:48;7.80;;;7.80;;
80104;SDS011;69865;47.648;19.030;2023-11-18T01:20:21;7.23;;;7.23;;
80104;SDS011;69865;47.648;19.030;2023-11-18T01:20:53;7.50;;;7.50;;
80104;SDS011;69865;47.648;19.030;2023-11-18T01:21:26;7.57;;;7.57;;
80104;SDS011;69865;47.648;19.030;2023-11-18T01:21:58;7.40;;;7.40;;
80104;SDS011;69865;47.648;19.030;2023-11-18T01:22:30;7.33;;;7.33;;
80104;SDS011;69865;47.648;19.030;2023-11-18T01:23:02;7.83;;;7.83;;
80104;SDS011;69865;47.648;19.030;2023-11-18T01:23:34;8.03;;;8.03;;
80104;SDS011;69865;47.648;19.030;2023-11-18T01:24:08;8.10;;;8.10;;
80104;SDS011;69865;47.648;19.030;2023-11-18T01:24:41;7.20;;;7.20;;
80104;SDS011;69865;47.648;19.030;2023-11-18T01:25:15;7.77;;;7.60;;
80104;SDS011;69865;47.648;19.030;2023-11-18T01:25:47;8.30;;;8.27;;
80104;SDS011;69865;47.648;19.030;2023-11-18T01:26:19;7.77;;;7.70;;
80104;SDS011;69865;47.648;19.030;2023-11-18T01:26:54;7.87;;;7.87;;
80104;SDS011;69865;47.648;19.030;2023-11-18T01:27:26;7.43;;;7.43;;
80104;SDS011;69865;47.648;19.030;2023-11-18T01:27:58;7.77;;;7.77;;
80104;SDS011;69865;47.648;19.030;2023-11-18T01:28:33;7.67;;;7.67;;
80104;SDS011;69865;47.648;19.030;2023-11-18T01:29:15;8.30;;;8.30;;
80104;SDS011;69865;47.648;19.030;2023-11-18T01:29:47;7.87;;;7.87;;
80104;SDS011;69865;47.648;19.030;2023-11-18T01:30:19;7.83;;;7.83;;
80104;SDS011;69865;47.648;19.030;2023-11-18T01:30:53;7.43;;;7.43;;
80104;SDS011;69865;47.648;19.030;2023-11-18T01:31:26;7.73;;;7.73;;
80104;SDS011;69865;47.648;19.030;2023-11-18T01:32:06;7.87;;;7.87;;
80104;SDS011;69865;47.648;19.030;2023-11-18T01:32:38;7.77;;;7.77;;
80104;SDS011;69865;47.648;19.030;2023-11-18T01:33:10;8.27;;;8.23;;
80104;SDS011;69865;47.648;19.030;2023-11-18T01:33:44;7.77;;;7.77;;
80104;SDS011;69865;47.648;19.030;2023-11-18T01:34:17;7.83;;;7.83;;
80104;SDS011;69865;47.648;19.030;2023-11-18T01:34:49;7.60;;;7.57;;
80104;SDS011;69865;47.648;19.030;2023-11-18T01:35:23;8.17;;;8.17;;
80104;SDS011;69865;47.648;19.030;2023-11-18T01:35:56;7.97;;;7.97;;
80104;SDS011;69865;47.648;19.030;2023-11-18T01:36:28;7.60;;;7.60;;
80104;SDS011;69865;47.648;19.030;2023-11-18T01:37:01;7.73;;;7.73;;
80104;SDS011;69865;47.648;19.030;2023-11-18T01:37:36;7.77;;;7.77;;
80104;SDS011;69865;47.648;19.030;2023-11-18T01:38:10;8.20;;;8.20;;
80104;SDS011;69865;47.648;19.030;2023-11-18T01:38:45;7.67;;;7.53;;
80104;SDS011;69865;47.648;19.030;2023-11-18T01:39:19;7.73;;;7.70;;
80104;SDS011;69865;47.648;19.030;2023-11-18T01:39:52;7.57;;;7.57;;
80104;SDS011;69865;47.648;19.030;2023-11-18T01:40:25;7.83;;;7.83;;
80104;SDS011;69865;47.648;19.030;2023-11-18T01:41:01;7.27;;;7.27;;
80104;SDS011;69865;47.648;19.030;2023-11-18T01:41:33;8.20;;;8.20;;
80104;SDS011;69865;47.648;19.030;2023-11-18T01:42:05;7.37;;;7.37;;
80104;SDS011;69865;47.648;19.030;2023-11-18T01:42:37;8.13;;;8.13;;
80104;SDS011;69865;47.648;19.030;2023-11-18T01:43:09;8.27;;;8.27;;
80104;SDS011;69865;47.648;19.030;2023-11-18T01:43:45;7.40;;;7.40;;
80104;SDS011;69865;47.648;19.030;2023-11-18T01:44:21;7.37;;;7.37;;
80104;SDS011;69865;47.648;19.030;2023-11-18T01:44:54;7.57;;;7.57;;
80104;SDS011;69865;47.648;19.030;2023-11-18T01:45:26;7.27;;;7.27;;
80104;SDS011;69865;47.648;19.030;2023-11-18T01:45:59;7.60;;;7.60;;
80104;SDS011;69865;47.648;19.030;2023-11-18T01:46:33;7.67;;;7.67;;
80104;SDS011;69865;47.648;19.030;2023-11-18T01:47:06;7.33;;;7.33;;
80104;SDS011;69865;47.648;19.030;2023-11-18T01:47:41;7.97;;;7.97;;
80104;SDS011;69865;47.648;19.030;2023-11-18T01:48:19;7.73;;;7.73;;
80104;SDS011;69865;47.648;19.030;2023-11-18T01:48:54;7.27;;;7.27;;
80104;SDS011;69865;47.648;19.030;2023-11-18T01:49:27;7.37;;;7.37;;
80104;SDS011;69865;47.648;19.030;2023-11-18T01:49:59;7.47;;;7.47;;
80104;SDS011;69865;47.648;19.030;2023-11-18T01:50:37;7.63;;;7.63;;
80104;SDS011;69865;47.648;19.030;2023-11-18T01:51:11;7.73;;;7.73;;
80104;SDS011;69865;47.648;19.030;2023-11-18T01:51:45;8.17;;;8.17;;
80104;SDS011;69865;47.648;19.030;2023-11-18T01:52:18;7.53;;;7.53;;
80104;SDS011;69865;47.648;19.030;2023-11-18T01:52:50;7.57;;;7.57;;
80104;SDS011;69865;47.648;19.030;2023-11-18T01:53:23;7.60;;;7.60;;
80104;SDS011;69865;47.648;19.030;2023-11-18T01:53:56;7.90;;;7.90;;
80104;SDS011;69865;47.648;19.030;2023-11-18T01:54:32;7.30;;;7.30;;
80104;SDS011;69865;47.648;19.030;2023-11-18T01:55:05;7.57;;;7.57;;
80104;SDS011;69865;47.648;19.030;2023-11-18T01:55:41;7.30;;;7.30;;
80104;SDS011;69865;47.648;19.030;2023-11-18T01:56:14;7.13;;;7.13;;
80104;SDS011;69865;47.648;19.030;2023-11-18T01:56:47;7.23;;;7.23;;
80104;SDS011;69865;47.648;19.030;2023-11-18T01:57:20;7.13;;;7.13;;
80104;SDS011;69865;47.648;19.030;2023-11-18T01:57:53;7.27;;;7.27;;
80104;SDS011;69865;47.648;19.030;2023-11-18T01:58:25;7.27;;;7.27;;
80104;SDS011;69865;47.648;19.030;2023-11-18T01:58:57;8.03;;;8.03;;
80104;SDS011;69865;47.648;19.030;2023-11-18T01:59:30;7.93;;;7.93;;
80104;SDS011;69865;47.648;19.030;2023-11-18T02:00:02;7.73;;;7.73;;
80104;SDS011;69865;47.648;19.030;2023-11-18T02:00:36;7.13;;;7.13;;
80104;SDS011;69865;47.648;19.030;2023-11-18T02:01:13;7.93;;;7.93;;
80104;SDS011;69865;47.648;19.030;2023-11-18T02:01:46;7.57;;;7.53;;
80104;SDS011;69865;47.648;19.030;2023-11-18T02:02:21;7.40;;;7.30;;
80104;SDS011;69865;47.648;19.030;2023-11-18T02:02:53;7.17;;;7.10;;
80104;SDS011;69865;47.648;19.030;2023-11-18T02:03:26;7.60;;;7.60;;
80104;SDS011;69865;47.648;19.030;2023-11-18T02:03:59;7.43;;;7.43;;
80104;SDS011;69865;47.648;19.030;2023-11-18T02:04:34;7.00;;;7.00;;
80104;SDS011;69865;47.648;19.030;2023-11-18T02:05:06;7.37;;;7.37;;
80104;SDS011;69865;47.648;19.030;2023-11-18T02:05:39;7.17;;;7.17;;
80104;SDS011;69865;47.648;19.030;2023-11-18T02:06:11;6.90;;;6.90;;
80104;SDS011;69865;47.648;19.030;2023-11-18T02:06:46;7.00;;;7.00;;
80104;SDS011;69865;47.648;19.030;2023-11-18T02:07:20;6.97;;;6.97;;
80104;SDS011;69865;47.648;19.030;2023-11-18T02:07:52;7.37;;;7.37;;
80104;SDS011;69865;47.648;19.030;2023-11-18T02:08:24;7.27;;;7.27;;
80104;SDS011;69865;47.648;19.030;2023-11-18T02:08:58;6.97;;;6.97;;
80104;SDS011;69865;47.648;19.030;2023-11-18T02:09:33;6.97;;;6.97;;
80104;SDS011;69865;47.648;19.030;2023-11-18T02:10:13;6.67;;;6.67;;
80104;SDS011;69865;47.648;19.030;2023-11-18T02:10:46;6.93;;;6.93;;
80104;SDS011;69865;47.648;19.030;2023-11-18T02:11:20;6.93;;;6.93;;
80104;SDS011;69865;47.648;19.030;2023-11-18T02:12:00;6.87;;;6.87;;
80104;SDS011;69865;47.648;19.030;2023-11-18T02:12:46;6.90;;;6.90;;
80104;SDS011;69865;47.648;19.030;2023-11-18T02:13:29;7.20;;;7.20;;
80104;SDS011;69865;47.648;19.030;2023-11-18T02:14:05;6.70;;;6.70;;
80104;SDS011;69865;47.648;19.030;2023-11-18T02:14:39;6.83;;;6.83;;
80104;SDS011;69865;47.648;19.030;2023-11-18T02:15:12;7.43;;;7.43;;
80104;SDS011;69865;47.648;19.030;2023-11-18T02:15:47;7.23;;;7.23;;
80104;SDS011;69865;47.648;19.030;2023-11-18T02:16:19;7.33;;;7.33;;
80104;SDS011;69865;47.648;19.030;2023-11-18T02:16:53;7.10;;;7.10;;
80104;SDS011;69865;47.648;19.030;2023-11-18T02:17:30;6.17;;;6.17;;
80104;SDS011;69865;47.648;19.030;2023-11-18T02:18:06;6.27;;;6.27;;
80104;SDS011;69865;47.648;19.030;2023-11-18T02:18:40;6.57;;;6.57;;
80104;SDS011;69865;47.648;19.030;2023-11-18T02:19:16;7.43;;;7.43;;
80104;SDS011;69865;47.648;19.030;2023-11-18T02:19:52;7.17;;;7.17;;
80104;SDS011;69865;47.648;19.030;2023-11-18T02:20:27;6.93;;;6.93;;
80104;SDS011;69865;47.648;19.030;2023-11-18T02:21:01;6.77;;;6.77;;
80104;SDS011;69865;47.648;19.030;2023-11-18T02:21:35;6.70;;;6.70;;
80104;SDS011;69865;47.648;19.030;2023-11-18T02:22:09;6.83;;;6.83;;
80104;SDS011;69865;47.648;19.030;2023-11-18T02:22:42;6.57;;;6.57;;
80104;SDS011;69865;47.648;19.030;2023-11-18T02:23:15;6.80;;;6.80;;
80104;SDS011;69865;47.648;19.030;2023-11-18T02:23:47;6.73;;;6.73;;
80104;SDS011;69865;47.648;19.030;2023-11-18T02:24:26;6.13;;;6.13;;
80104;SDS011;69865;47.648;19.030;2023-11-18T02:25:02;6.83;;;6.83;;
80104;SDS011;69865;47.648;19.030;2023-11-18T02:25:41;6.67;;;6.67;;
80104;SDS011;69865;47.648;19.030;2023-11-18T02:26:20;6.83;;;6.83;;
80104;SDS011;69865;47.648;19.030;2023-11-18T02:26:53;6.60;;;6.60;;
80104;SDS011;69865;47.648;19.030;2023-11-18T02:27:25;7.17;;;7.17;;
80104;SDS011;69865;47.648;19.030;2023-11-18T02:27:57;6.87;;;6.87;;
80104;SDS011;69865;47.648;19.030;2023-11-18T02:28:29;6.70;;;6.70;;
80104;SDS011;69865;47.648;19.030;2023-11-18T02:29:01;5.97;;;5.97;;
80104;SDS011;69865;47.648;19.030;2023-11-18T02:29:35;6.07;;;6.07;;
80104;SDS011;69865;47.648;19.030;2023-11-18T02:30:09;5.77;;;5.77;;
80104;SDS011;69865;47.648;19.030;2023-11-18T02:30:43;6.70;;;6.70;;
80104;SDS011;69865;47.648;19.030;2023-11-18T02:31:16;6.33;;;6.30;;
80104;SDS011;69865;47.648;19.030;2023-11-18T02:31:56;6.53;;;6.50;;
80104;SDS011;69865;47.648;19.030;2023-11-18T02:32:35;6.70;;;6.70;;
80104;SDS011;69865;47.648;19.030;2023-11-18T02:33:18;6.47;;;6.37;;
80104;SDS011;69865;47.648;19.030;2023-11-18T02:33:58;6.83;;;6.80;;
80104;SDS011;69865;47.648;19.030;2023-11-18T02:34:38;7.03;;;6.83;;
80104;SDS011;69865;47.648;19.030;2023-11-18T02:35:30;6.53;;;6.53;;
80104;SDS011;69865;47.648;19.030;2023-11-18T02:36:09;6.37;;;6.33;;
80104;SDS011;69865;47.648;19.030;2023-11-18T02:36:46;6.37;;;6.37;;
80104;SDS011;69865;47.648;19.030;2023-11-18T02:37:20;6.23;;;6.17;;
80104;SDS011;69865;47.648;19.030;2023-11-18T02:37:54;5.80;;;5.80;;
80104;SDS011;69865;47.648;19.030;2023-11-18T02:38:27;6.17;;;6.17;;
80104;SDS011;69865;47.648;19.030;2023-11-18T02:39:03;5.87;;;5.87;;
80104;SDS011;69865;47.648;19.030;2023-11-18T02:39:43;6.70;;;6.70;;
80104;SDS011;69865;47.648;19.030;2023-11-18T02:40:22;6.57;;;6.57;;
80104;SDS011;69865;47.648;19.030;2023-11-18T02:40:59;6.47;;;6.47;;
80104;SDS011;69865;47.648;19.030;2023-11-18T02:41:38;6.07;;;6.07;;
80104;SDS011;69865;47.648;19.030;2023-11-18T02:42:13;6.30;;;6.30;;
80104;SDS011;69865;47.648;19.030;2023-11-18T02:42:45;6.10;;;6.10;;
80104;SDS011;69865;47.648;19.030;2023-11-18T02:43:20;6.33;;;6.33;;
80104;SDS011;69865;47.648;19.030;2023-11-18T02:43:53;5.83;;;5.83;;
80104;SDS011;69865;47.648;19.030;2023-11-18T02:44:28;6.27;;;6.27;;
80104;SDS011;69865;47.648;19.030;2023-11-18T02:45:03;6.33;;;6.33;;
80104;SDS011;69865;47.648;19.030;2023-11-18T02:45:39;6.60;;;6.60;;
80104;SDS011;69865;47.648;19.030;2023-11-18T02:46:13;6.00;;;6.00;;
80104;SDS011;69865;47.648;19.030;2023-11-18T02:46:47;6.17;;;6.17;;
80104;SDS011;69865;47.648;19.030;2023-11-18T02:47:23;6.03;;;6.03;;
80104;SDS011;69865;47.648;19.030;2023-11-18T02:47:55;6.47;;;6.47;;
80104;SDS011;69865;47.648;19.030;2023-11-18T02:48:28;6.40;;;6.40;;
80104;SDS011;69865;47.648;19.030;2023-11-18T02:49:00;6.60;;;6.60;;
80104;SDS011;69865;47.648;19.030;2023-11-18T02:49:34;6.33;;;6.33;;
80104;SDS011;69865;47.648;19.030;2023-11-18T02:50:07;6.73;;;6.73;;
80104;SDS011;69865;47.648;19.030;2023-11-18T02:50:41;6.20;;;6.20;;
80104;SDS011;69865;47.648;19.030;2023-11-18T02:51:13;6.30;;;6.30;;
80104;SDS011;69865;47.648;19.030;2023-11-18T02:51:49;6.23;;;6.23;;
80104;SDS011;69865;47.648;19.030;2023-11-18T02:52:24;6.53;;;6.53;;
80104;SDS011;69865;47.648;19.030;2023-11-18T02:52:56;6.57;;;6.57;;
80104;SDS011;69865;47.648;19.030;2023-11-18T02:53:29;6.73;;;6.73;;
80104;SDS011;69865;47.648;19.030;2023-11-18T02:54:01;5.60;;;5.60;;
80104;SDS011;69865;47.648;19.030;2023-11-18T02:54:33;6.07;;;6.07;;
80104;SDS011;69865;47.648;19.030;2023-11-18T02:55:06;6.30;;;6.30;;
80104;SDS011;69865;47.648;19.030;2023-11-18T02:55:38;5.67;;;5.67;;
80104;SDS011;69865;47.648;19.030;2023-11-18T02:56:12;6.00;;;6.00;;
80104;SDS011;69865;47.648;19.030;2023-11-18T02:56:45;6.57;;;6.57;;
80104;SDS011;69865;47.648;19.030;2023-11-18T02:57:17;6.60;;;6.60;;
80104;SDS011;69865;47.648;19.030;2023-11-18T02:57:49;6.83;;;6.83;;
80104;SDS011;69865;47.648;19.030;2023-11-18T02:58:22;6.37;;;6.37;;
80104;SDS011;69865;47.648;19.030;2023-11-18T02:58:57;6.43;;;6.43;;
80104;SDS011;69865;47.648;19.030;2023-11-18T02:59:29;6.03;;;6.03;;
80104;SDS011;69865;47.648;19.030;2023-11-18T03:00:02;6.53;;;6.53;;
80104;SDS011;69865;47.648;19.030;2023-11-18T03:00:36;6.83;;;6.83;;
80104;SDS011;69865;47.648;19.030;2023-11-18T03:01:11;6.13;;;6.13;;
80104;SDS011;69865;47.648;19.030;2023-11-18T03:01:46;6.07;;;6.07;;
80104;SDS011;69865;47.648;19.030;2023-11-18T03:02:18;6.17;;;6.17;;
80104;SDS011;69865;47.648;19.030;2023-11-18T03:02:50;6.03;;;6.03;;
80104;SDS011;69865;47.648;19.030;2023-11-18T03:03:24;6.57;;;6.57;;
80104;SDS011;69865;47.648;19.030;2023-11-18T03:03:56;7.20;;;7.20;;
80104;SDS011;69865;47.648;19.030;2023-11-18T03:04:28;6.53;;;6.53;;
80104;SDS011;69865;47.648;19.030;2023-11-18T03:05:01;6.47;;;6.47;;
80104;SDS011;69865;47.648;19.030;2023-11-18T03:05:42;6.37;;;6.37;;
80104;SDS011;69865;47.648;19.030;2023-11-18T03:06:14;6.20;;;6.20;;
80104;SDS011;69865;47.648;19.030;2023-11-18T03:06:47;6.17;;;6.17;;
80104;SDS011;69865;47.648;19.030;2023-11-18T03:07:22;6.00;;;6.00;;
80104;SDS011;69865;47.648;19.030;2023-11-18T03:07:54;5.87;;;5.87;;
80104;SDS011;69865;47.648;19.030;2023-11-18T03:08:27;5.80;;;5.80;;
80104;SDS011;69865;47.648;19.030;2023-11-18T03:08:59;5.70;;;5.70;;
80104;SDS011;69865;47.648;19.030;2023-11-18T03:09:32;6.47;;;6.47;;
80104;SDS011;69865;47.648;19.030;2023-11-18T03:10:05;6.63;;;6.63;;
80104;SDS011;69865;47.648;19.030;2023-11-18T03:10:38;6.27;;;6.27;;
80104;SDS011;69865;47.648;19.030;2023-11-18T03:11:12;6.20;;;6.20;;
80104;SDS011;69865;47.648;19.030;2023-11-18T03:11:44;6.23;;;6.23;;
80104;SDS011;69865;47.648;19.030;2023-11-18T03:12:16;6.13;;;6.13;;
80104;SDS011;69865;47.648;19.030;2023-11-18T03:12:49;6.20;;;6.20;;
80104;SDS011;69865;47.648;19.030;2023-11-18T03:13:21;5.87;;;5.87;;
80104;SDS011;69865;47.648;19.030;2023-11-18T03:13:53;6.10;;;6.10;;
80104;SDS011;69865;47.648;19.030;2023-11-18T03:14:26;5.80;;;5.80;;
80104;SDS011;69865;47.648;19.030;2023-11-18T03:14:58;6.13;;;6.13;;
80104;SDS011;69865;47.648;19.030;2023-11-18T03:15:33;6.43;;;6.43;;
80104;SDS011;69865;47.648;19.030;2023-11-18T03:16:06;6.30;;;6.30;;
80104;SDS011;69865;47.648;19.030;2023-11-18T03:16:39;6.63;;;6.60;;
80104;SDS011;69865;47.648;19.030;2023-11-18T03:17:11;7.73;;;7.60;;
80104;SDS011;69865;47.648;19.030;2023-11-18T03:17:44;6.50;;;6.50;;
80104;SDS011;69865;47.648;19.030;2023-11-18T03:18:17;6.50;;;6.50;;
80104;SDS011;69865;47.648;19.030;2023-11-18T03:18:49;6.67;;;6.67;;
80104;SDS011;69865;47.648;19.030;2023-11-18T03:19:25;6.70;;;6.70;;